Terminal Aerodrome Forecast
Issued by NWS

Home | Current Version | Previous Version | Text Only | Print | Product List | Glossary On
Versions: 1 2 3 4 5 6 7 8 9 10 11 12
000
FTUS42 KGSP 221741
TAFHKY
TAF
KHKY 221741Z 2218/2318 16005KT P6SM OVC060
     FM230300 11007KT 4SM -SHRA OVC040
     FM230800 10009KT 4SM -RA OVC015
     FM231300 07015G23KT 6SM -SHRA OVC009
     FM231400 07014G21KT 3SM -SHRA BR OVC007=

USA.gov is the U.S. government's official web portal to all federal, state and local government web resources and services.